If you wish to contribute or participate in the discussions about articles you are invited to join SKYbrary as a registered user

 Actions

El Loa Airport

From SKYbrary Wiki

SCCF
Airport
ICAO: SCCF – IATA: CJC
Summary
Name El Loa Airport
Region South America and Caribbean
Territory Chile CL.gif
Location Calama, Antofagasta
Serving Calama
Elevation 2,299.106 m
7,543 ft
7,543 ft2,299.106 m
Type medium airport
Coordinates 22° 29' 53.43" S, 68° 54' 12.87" W
Runways
Designator Length Width Surface ROPS
10/28 2889 m9,478.346 ft
30 m98.425 ft
ASP /


METAR
Observation SCCF 222200Z 27019KT CAVOK 22/M14 Q1027
Station CALAMA/EL LOA
Date/Time 22 September 2019 22:00:00
Wind direction 270°
Wind speed 19 kts
Lowest cloud amount clouds and visibility OK
Temperature 22°C
Dew point
Humidity 7%
QNH 1027 hPa
Weather condition n/a

Airport serving Calama in northern Chile.

Climatology

Cold desert climate (Köppen climate classification BWk)

Maps

Terrain

Loading map...

Airport Layout

Loading map...


Accidents & Serious Incidents at or in vicinity of SCCF

None on SKYbrary